Dripping Springs' Hourly Summary for Saturday, May 12, 2018
Hour Temp
(f)
RH
(%)
Solar Rad.
(MJ/m2)
Rainfall
(in)
Wind
(mph)
5/12/2018 12:00 AM 73 86 0 0 8.22
5/12/2018 1:00 AM 72 86 0 0 8.22
5/12/2018 2:00 AM 72 86 0 0 7.48
5/12/2018 3:00 AM 72 85 0 0 6.68
5/12/2018 4:00 AM 71 86 0 0 6.68
5/12/2018 5:00 AM 70 88 0 0 6.8
5/12/2018 6:00 AM 70 89 0.01 0 6.8
5/12/2018 7:00 AM 70 89 0.28 0 6.54
5/12/2018 8:00 AM 73 84 0.93 0 7.07
5/12/2018 9:00 AM 74 78 0.93 0 7.89
5/12/2018 10:00 AM 78 68 2.85 0 8.33
5/12/2018 11:00 AM 79 58 2.85 0 8.33
5/12/2018 12:00 PM 82 53 2.81 0 7.74
5/12/2018 1:00 PM 84 50 3.3 0 7.63
5/12/2018 2:00 PM 85 47 3.3 0 7.63
5/12/2018 3:00 PM 86 47 2.68 0 7.53
5/12/2018 4:00 PM 87 42 2.08 0 7.65
5/12/2018 5:00 PM 87 41 1.98 0 7.65
5/12/2018 6:00 PM 87 41 1.75 0 7.62
5/12/2018 7:00 PM 87 44 0.41 0 7.45
5/12/2018 8:00 PM 85 51 0.25 0 6.26
5/12/2018 9:00 PM 81 62 0.01 0 6.84
5/12/2018 10:00 PM 79 70 0 0 7.68
5/12/2018 11:00 PM 77 78 0 0 7.68
Data Summary 78 67 26.42 0.00 7.43